sensor_id;sensor_type;location;lat;lon;timestamp;P1;durP1;ratioP1;P2;durP2;ratioP2
43744;SDS011;29359;53.048;8.732;2022-12-20T00:00:25;6.22;;;4.82;;
43744;SDS011;29359;53.048;8.732;2022-12-20T00:02:26;7.38;;;4.60;;
43744;SDS011;29359;53.048;8.732;2022-12-20T00:04:28;8.93;;;4.28;;
43744;SDS011;29359;53.048;8.732;2022-12-20T00:06:29;5.18;;;4.30;;
43744;SDS011;29359;53.048;8.732;2022-12-20T00:08:32;5.03;;;4.13;;
43744;SDS011;29359;53.048;8.732;2022-12-20T00:10:35;5.95;;;4.40;;
43744;SDS011;29359;53.048;8.732;2022-12-20T00:12:37;5.75;;;4.53;;
43744;SDS011;29359;53.048;8.732;2022-12-20T00:14:39;4.97;;;4.55;;
43744;SDS011;29359;53.048;8.732;2022-12-20T00:16:40;6.22;;;4.55;;
43744;SDS011;29359;53.048;8.732;2022-12-20T00:18:42;4.70;;;4.22;;
43744;SDS011;29359;53.048;8.732;2022-12-20T00:20:45;6.47;;;4.43;;
43744;SDS011;29359;53.048;8.732;2022-12-20T00:22:46;6.90;;;5.03;;
43744;SDS011;29359;53.048;8.732;2022-12-20T00:24:48;7.55;;;4.13;;
43744;SDS011;29359;53.048;8.732;2022-12-20T00:26:49;4.82;;;4.30;;
43744;SDS011;29359;53.048;8.732;2022-12-20T00:28:51;5.15;;;4.05;;
43744;SDS011;29359;53.048;8.732;2022-12-20T00:30:53;8.77;;;4.25;;
43744;SDS011;29359;53.048;8.732;2022-12-20T00:32:55;6.07;;;4.20;;
43744;SDS011;29359;53.048;8.732;2022-12-20T00:34:56;5.78;;;4.60;;
43744;SDS011;29359;53.048;8.732;2022-12-20T00:36:58;5.90;;;3.90;;
43744;SDS011;29359;53.048;8.732;2022-12-20T00:39:00;7.85;;;4.30;;
43744;SDS011;29359;53.048;8.732;2022-12-20T00:41:03;5.47;;;4.07;;
43744;SDS011;29359;53.048;8.732;2022-12-20T00:43:06;4.97;;;3.67;;
43744;SDS011;29359;53.048;8.732;2022-12-20T00:45:08;6.07;;;3.65;;
43744;SDS011;29359;53.048;8.732;2022-12-20T00:47:10;5.28;;;4.18;;
43744;SDS011;29359;53.048;8.732;2022-12-20T00:49:11;5.75;;;4.15;;
43744;SDS011;29359;53.048;8.732;2022-12-20T00:51:14;6.82;;;4.07;;
43744;SDS011;29359;53.048;8.732;2022-12-20T00:53:19;5.30;;;3.97;;
43744;SDS011;29359;53.048;8.732;2022-12-20T00:55:26;7.07;;;4.57;;
43744;SDS011;29359;53.048;8.732;2022-12-20T00:57:28;4.53;;;4.13;;
43744;SDS011;29359;53.048;8.732;2022-12-20T00:59:29;5.22;;;4.57;;
43744;SDS011;29359;53.048;8.732;2022-12-20T01:01:31;6.72;;;3.92;;
43744;SDS011;29359;53.048;8.732;2022-12-20T01:03:35;5.38;;;4.05;;
43744;SDS011;29359;53.048;8.732;2022-12-20T01:05:36;4.55;;;4.00;;
43744;SDS011;29359;53.048;8.732;2022-12-20T01:07:38;5.78;;;4.00;;
43744;SDS011;29359;53.048;8.732;2022-12-20T01:09:39;6.65;;;3.90;;
43744;SDS011;29359;53.048;8.732;2022-12-20T01:11:41;6.30;;;4.15;;
43744;SDS011;29359;53.048;8.732;2022-12-20T01:13:44;6.05;;;4.13;;
43744;SDS011;29359;53.048;8.732;2022-12-20T01:15:47;5.25;;;3.85;;
43744;SDS011;29359;53.048;8.732;2022-12-20T01:17:48;6.30;;;4.43;;
43744;SDS011;29359;53.048;8.732;2022-12-20T01:19:51;5.13;;;3.92;;
43744;SDS011;29359;53.048;8.732;2022-12-20T01:21:53;5.25;;;3.92;;
43744;SDS011;29359;53.048;8.732;2022-12-20T01:23:54;5.30;;;4.05;;
43744;SDS011;29359;53.048;8.732;2022-12-20T01:25:57;4.72;;;3.92;;
43744;SDS011;29359;53.048;8.732;2022-12-20T01:28:00;5.80;;;4.13;;
43744;SDS011;29359;53.048;8.732;2022-12-20T01:30:01;6.32;;;3.78;;
43744;SDS011;29359;53.048;8.732;2022-12-20T01:32:03;6.93;;;4.30;;
43744;SDS011;29359;53.048;8.732;2022-12-20T01:34:04;3.58;;;3.28;;
43744;SDS011;29359;53.048;8.732;2022-12-20T01:36:10;16.02;;;4.78;;
43744;SDS011;29359;53.048;8.732;2022-12-20T01:38:14;7.35;;;3.75;;
43744;SDS011;29359;53.048;8.732;2022-12-20T01:40:16;8.02;;;4.00;;
43744;SDS011;29359;53.048;8.732;2022-12-20T01:42:18;4.35;;;3.58;;
43744;SDS011;29359;53.048;8.732;2022-12-20T01:46:21;9.38;;;4.20;;
43744;SDS011;29359;53.048;8.732;2022-12-20T01:48:25;6.90;;;4.40;;
43744;SDS011;29359;53.048;8.732;2022-12-20T01:50:26;5.15;;;4.32;;
43744;SDS011;29359;53.048;8.732;2022-12-20T01:52:33;4.60;;;3.80;;
43744;SDS011;29359;53.048;8.732;2022-12-20T01:56:49;14.18;;;3.70;;
43744;SDS011;29359;53.048;8.732;2022-12-20T01:59:03;4.18;;;3.78;;
43744;SDS011;29359;53.048;8.732;2022-12-20T02:01:05;4.88;;;3.40;;
43744;SDS011;29359;53.048;8.732;2022-12-20T02:03:08;9.05;;;4.07;;
43744;SDS011;29359;53.048;8.732;2022-12-20T02:05:12;5.25;;;3.25;;
43744;SDS011;29359;53.048;8.732;2022-12-20T02:07:24;4.57;;;3.58;;
43744;SDS011;29359;53.048;8.732;2022-12-20T02:09:29;3.70;;;3.40;;
43744;SDS011;29359;53.048;8.732;2022-12-20T02:16:27;4.70;;;3.70;;
43744;SDS011;29359;53.048;8.732;2022-12-20T02:18:33;4.03;;;3.35;;
43744;SDS011;29359;53.048;8.732;2022-12-20T02:20:49;8.27;;;4.00;;
43744;SDS011;29359;53.048;8.732;2022-12-20T02:30:31;5.45;;;4.35;;
43744;SDS011;29359;53.048;8.732;2022-12-20T02:34:50;5.45;;;4.10;;
43744;SDS011;29359;53.048;8.732;2022-12-20T02:36:52;8.45;;;4.18;;
43744;SDS011;29359;53.048;8.732;2022-12-20T02:38:53;6.20;;;3.90;;
43744;SDS011;29359;53.048;8.732;2022-12-20T02:40:56;5.47;;;3.65;;
43744;SDS011;29359;53.048;8.732;2022-12-20T02:43:03;3.90;;;3.55;;
43744;SDS011;29359;53.048;8.732;2022-12-20T02:45:30;5.72;;;3.30;;
43744;SDS011;29359;53.048;8.732;2022-12-20T02:47:36;5.25;;;3.75;;
43744;SDS011;29359;53.048;8.732;2022-12-20T02:49:42;5.85;;;3.85;;
43744;SDS011;29359;53.048;8.732;2022-12-20T02:51:46;6.00;;;3.30;;
43744;SDS011;29359;53.048;8.732;2022-12-20T02:53:52;5.65;;;3.75;;
43744;SDS011;29359;53.048;8.732;2022-12-20T02:58:22;5.85;;;3.88;;
43744;SDS011;29359;53.048;8.732;2022-12-20T03:00:31;7.35;;;3.78;;
43744;SDS011;29359;53.048;8.732;2022-12-20T03:02:37;11.40;;;3.90;;
43744;SDS011;29359;53.048;8.732;2022-12-20T03:04:59;4.25;;;3.55;;
43744;SDS011;29359;53.048;8.732;2022-12-20T03:07:05;5.35;;;3.90;;
43744;SDS011;29359;53.048;8.732;2022-12-20T03:09:08;7.22;;;4.18;;
43744;SDS011;29359;53.048;8.732;2022-12-20T03:11:09;6.57;;;3.47;;
43744;SDS011;29359;53.048;8.732;2022-12-20T03:13:11;3.63;;;3.33;;
43744;SDS011;29359;53.048;8.732;2022-12-20T03:15:13;5.85;;;3.95;;
43744;SDS011;29359;53.048;8.732;2022-12-20T03:17:14;4.93;;;3.30;;
43744;SDS011;29359;53.048;8.732;2022-12-20T03:19:16;7.07;;;3.58;;
43744;SDS011;29359;53.048;8.732;2022-12-20T03:21:17;3.65;;;3.35;;
43744;SDS011;29359;53.048;8.732;2022-12-20T03:23:19;3.70;;;3.40;;
43744;SDS011;29359;53.048;8.732;2022-12-20T03:25:22;5.35;;;3.58;;
43744;SDS011;29359;53.048;8.732;2022-12-20T03:27:23;4.20;;;3.28;;
43744;SDS011;29359;53.048;8.732;2022-12-20T03:29:27;4.88;;;3.17;;
43744;SDS011;29359;53.048;8.732;2022-12-20T03:31:29;3.58;;;3.22;;
43744;SDS011;29359;53.048;8.732;2022-12-20T03:33:30;5.38;;;3.50;;
43744;SDS011;29359;53.048;8.732;2022-12-20T03:35:32;3.30;;;3.00;;
43744;SDS011;29359;53.048;8.732;2022-12-20T03:37:34;4.53;;;3.55;;
43744;SDS011;29359;53.048;8.732;2022-12-20T03:39:36;9.15;;;3.20;;
43744;SDS011;29359;53.048;8.732;2022-12-20T03:41:37;5.47;;;3.25;;
43744;SDS011;29359;53.048;8.732;2022-12-20T03:43:39;3.33;;;3.03;;
43744;SDS011;29359;53.048;8.732;2022-12-20T03:45:40;6.60;;;3.50;;
43744;SDS011;29359;53.048;8.732;2022-12-20T03:47:42;4.70;;;3.80;;
43744;SDS011;29359;53.048;8.732;2022-12-20T03:49:43;2.92;;;2.70;;
43744;SDS011;29359;53.048;8.732;2022-12-20T03:51:45;5.45;;;3.22;;
43744;SDS011;29359;53.048;8.732;2022-12-20T03:53:46;5.03;;;2.55;;
43744;SDS011;29359;53.048;8.732;2022-12-20T03:55:48;3.53;;;2.70;;
43744;SDS011;29359;53.048;8.732;2022-12-20T03:57:49;4.75;;;3.13;;
43744;SDS011;29359;53.048;8.732;2022-12-20T03:59:51;3.72;;;3.00;;
43744;SDS011;29359;53.048;8.732;2022-12-20T04:01:54;3.20;;;2.90;;
43744;SDS011;29359;53.048;8.732;2022-12-20T04:03:56;5.43;;;3.08;;
43744;SDS011;29359;53.048;8.732;2022-12-20T04:05:57;3.33;;;3.10;;
43744;SDS011;29359;53.048;8.732;2022-12-20T04:07:59;3.80;;;3.35;;
43744;SDS011;29359;53.048;8.732;2022-12-20T04:10:00;3.10;;;2.80;;
43744;SDS011;29359;53.048;8.732;2022-12-20T04:12:02;5.18;;;3.45;;
43744;SDS011;29359;53.048;8.732;2022-12-20T04:14:04;4.93;;;3.10;;
43744;SDS011;29359;53.048;8.732;2022-12-20T04:16:06;5.78;;;3.20;;
43744;SDS011;29359;53.048;8.732;2022-12-20T04:18:07;3.95;;;2.90;;
43744;SDS011;29359;53.048;8.732;2022-12-20T04:20:11;5.60;;;3.30;;
43744;SDS011;29359;53.048;8.732;2022-12-20T04:22:20;5.95;;;2.90;;
43744;SDS011;29359;53.048;8.732;2022-12-20T04:24:22;3.17;;;2.85;;
43744;SDS011;29359;53.048;8.732;2022-12-20T04:26:23;4.97;;;2.80;;
43744;SDS011;29359;53.048;8.732;2022-12-20T04:28:26;3.08;;;2.80;;
43744;SDS011;29359;53.048;8.732;2022-12-20T04:30:28;3.45;;;3.00;;
43744;SDS011;29359;53.048;8.732;2022-12-20T04:32:29;3.75;;;2.78;;
43744;SDS011;29359;53.048;8.732;2022-12-20T04:34:31;4.20;;;3.45;;
43744;SDS011;29359;53.048;8.732;2022-12-20T04:36:32;3.20;;;2.85;;
43744;SDS011;29359;53.048;8.732;2022-12-20T04:38:34;4.07;;;2.70;;
43744;SDS011;29359;53.048;8.732;2022-12-20T04:40:36;8.23;;;3.03;;
43744;SDS011;29359;53.048;8.732;2022-12-20T04:42:37;3.17;;;2.72;;
43744;SDS011;29359;53.048;8.732;2022-12-20T04:44:39;6.18;;;2.78;;
43744;SDS011;29359;53.048;8.732;2022-12-20T04:46:40;3.40;;;2.83;;
43744;SDS011;29359;53.048;8.732;2022-12-20T04:48:42;3.90;;;2.72;;
43744;SDS011;29359;53.048;8.732;2022-12-20T04:50:57;4.70;;;3.00;;
43744;SDS011;29359;53.048;8.732;2022-12-20T04:52:59;3.30;;;2.50;;
43744;SDS011;29359;53.048;8.732;2022-12-20T04:55:19;3.50;;;2.92;;
43744;SDS011;29359;53.048;8.732;2022-12-20T04:57:21;4.75;;;2.70;;
43744;SDS011;29359;53.048;8.732;2022-12-20T04:59:23;3.67;;;2.70;;
43744;SDS011;29359;53.048;8.732;2022-12-20T05:01:24;3.22;;;2.90;;
43744;SDS011;29359;53.048;8.732;2022-12-20T05:03:26;4.13;;;3.00;;
43744;SDS011;29359;53.048;8.732;2022-12-20T05:05:28;6.45;;;3.00;;
43744;SDS011;29359;53.048;8.732;2022-12-20T05:07:29;3.70;;;2.70;;
43744;SDS011;29359;53.048;8.732;2022-12-20T05:09:31;4.00;;;2.38;;
43744;SDS011;29359;53.048;8.732;2022-12-20T05:11:32;5.18;;;3.03;;
43744;SDS011;29359;53.048;8.732;2022-12-20T05:13:34;3.88;;;3.10;;
43744;SDS011;29359;53.048;8.732;2022-12-20T05:15:35;7.18;;;2.90;;
43744;SDS011;29359;53.048;8.732;2022-12-20T05:17:37;5.00;;;2.53;;
43744;SDS011;29359;53.048;8.732;2022-12-20T05:19:39;5.22;;;3.13;;
43744;SDS011;29359;53.048;8.732;2022-12-20T05:21:40;4.97;;;2.90;;
43744;SDS011;29359;53.048;8.732;2022-12-20T05:24:00;3.58;;;2.80;;
43744;SDS011;29359;53.048;8.732;2022-12-20T05:26:20;4.78;;;2.90;;
43744;SDS011;29359;53.048;8.732;2022-12-20T05:28:25;4.10;;;3.20;;
43744;SDS011;29359;53.048;8.732;2022-12-20T05:30:27;5.78;;;3.03;;
43744;SDS011;29359;53.048;8.732;2022-12-20T05:32:29;6.38;;;3.22;;
43744;SDS011;29359;53.048;8.732;2022-12-20T05:34:30;3.22;;;2.75;;
43744;SDS011;29359;53.048;8.732;2022-12-20T05:36:32;4.10;;;3.00;;
43744;SDS011;29359;53.048;8.732;2022-12-20T05:38:33;4.88;;;3.35;;
43744;SDS011;29359;53.048;8.732;2022-12-20T05:40:35;4.75;;;3.38;;
43744;SDS011;29359;53.048;8.732;2022-12-20T05:42:36;3.83;;;3.47;;
43744;SDS011;29359;53.048;8.732;2022-12-20T05:44:38;3.83;;;3.47;;
43744;SDS011;29359;53.048;8.732;2022-12-20T05:46:39;3.65;;;3.35;;
43744;SDS011;29359;53.048;8.732;2022-12-20T05:48:41;5.63;;;3.30;;
43744;SDS011;29359;53.048;8.732;2022-12-20T05:50:43;3.75;;;2.92;;
43744;SDS011;29359;53.048;8.732;2022-12-20T05:52:46;3.63;;;3.33;;
43744;SDS011;29359;53.048;8.732;2022-12-20T05:54:47;5.90;;;3.67;;
43744;SDS011;29359;53.048;8.732;2022-12-20T05:56:48;4.25;;;3.30;;
43744;SDS011;29359;53.048;8.732;2022-12-20T05:58:50;4.57;;;3.63;;
43744;SDS011;29359;53.048;8.732;2022-12-20T06:00:52;4.25;;;3.30;;
43744;SDS011;29359;53.048;8.732;2022-12-20T06:02:53;4.68;;;3.65;;
43744;SDS011;29359;53.048;8.732;2022-12-20T06:04:56;7.10;;;3.53;;
43744;SDS011;29359;53.048;8.732;2022-12-20T06:07:02;4.20;;;3.50;;
43744;SDS011;29359;53.048;8.732;2022-12-20T06:09:05;6.93;;;3.92;;
43744;SDS011;29359;53.048;8.732;2022-12-20T06:11:06;3.95;;;3.60;;
43744;SDS011;29359;53.048;8.732;2022-12-20T06:13:08;8.98;;;3.40;;
43744;SDS011;29359;53.048;8.732;2022-12-20T06:15:11;3.90;;;3.50;;
43744;SDS011;29359;53.048;8.732;2022-12-20T06:17:15;5.78;;;3.60;;
43744;SDS011;29359;53.048;8.732;2022-12-20T06:19:18;5.50;;;3.53;;
43744;SDS011;29359;53.048;8.732;2022-12-20T06:21:24;4.30;;;3.80;;
43744;SDS011;29359;53.048;8.732;2022-12-20T06:23:31;5.50;;;3.90;;
43744;SDS011;29359;53.048;8.732;2022-12-20T06:25:32;4.60;;;3.60;;
43744;SDS011;29359;53.048;8.732;2022-12-20T06:27:35;4.53;;;3.72;;
43744;SDS011;29359;53.048;8.732;2022-12-20T06:29:37;3.95;;;3.60;;
43744;SDS011;29359;53.048;8.732;2022-12-20T06:31:39;4.15;;;3.47;;
43744;SDS011;29359;53.048;8.732;2022-12-20T06:33:40;6.05;;;3.80;;
43744;SDS011;29359;53.048;8.732;2022-12-20T06:35:42;4.45;;;3.83;;
43744;SDS011;29359;53.048;8.732;2022-12-20T06:37:43;4.22;;;3.55;;
43744;SDS011;29359;53.048;8.732;2022-12-20T06:39:45;7.43;;;3.95;;
43744;SDS011;29359;53.048;8.732;2022-12-20T06:41:46;4.72;;;2.97;;
43744;SDS011;29359;53.048;8.732;2022-12-20T06:43:48;5.75;;;3.80;;
43744;SDS011;29359;53.048;8.732;2022-12-20T06:45:49;4.05;;;3.47;;
43744;SDS011;29359;53.048;8.732;2022-12-20T06:47:51;6.78;;;3.70;;
43744;SDS011;29359;53.048;8.732;2022-12-20T06:49:52;5.13;;;3.67;;
43744;SDS011;29359;53.048;8.732;2022-12-20T06:51:54;5.70;;;3.47;;
43744;SDS011;29359;53.048;8.732;2022-12-20T06:53:56;4.50;;;3.67;;
43744;SDS011;29359;53.048;8.732;2022-12-20T06:55:57;4.28;;;3.50;;
43744;SDS011;29359;53.048;8.732;2022-12-20T06:57:59;5.78;;;3.63;;
43744;SDS011;29359;53.048;8.732;2022-12-20T07:00:00;3.85;;;3.53;;
43744;SDS011;29359;53.048;8.732;2022-12-20T07:02:02;6.82;;;3.85;;
43744;SDS011;29359;53.048;8.732;2022-12-20T07:04:05;5.68;;;3.33;;
43744;SDS011;29359;53.048;8.732;2022-12-20T07:06:07;4.30;;;3.20;;
43744;SDS011;29359;53.048;8.732;2022-12-20T07:08:08;3.55;;;3.25;;
43744;SDS011;29359;53.048;8.732;2022-12-20T07:10:09;5.38;;;3.70;;
43744;SDS011;29359;53.048;8.732;2022-12-20T07:12:11;5.82;;;3.10;;
43744;SDS011;29359;53.048;8.732;2022-12-20T07:14:13;3.63;;;3.33;;
43744;SDS011;29359;53.048;8.732;2022-12-20T07:16:14;5.75;;;3.30;;
43744;SDS011;29359;53.048;8.732;2022-12-20T07:18:16;7.60;;;3.35;;
43744;SDS011;29359;53.048;8.732;2022-12-20T07:20:17;3.53;;;2.92;;
43744;SDS011;29359;53.048;8.732;2022-12-20T07:22:19;8.70;;;3.55;;
43744;SDS011;29359;53.048;8.732;2022-12-20T07:24:21;7.53;;;3.22;;
43744;SDS011;29359;53.048;8.732;2022-12-20T07:26:22;3.90;;;3.47;;
43744;SDS011;29359;53.048;8.732;2022-12-20T07:28:24;5.93;;;3.25;;
43744;SDS011;29359;53.048;8.732;2022-12-20T07:30:26;2.90;;;2.70;;
43744;SDS011;29359;53.048;8.732;2022-12-20T07:32:27;4.97;;;3.33;;
43744;SDS011;29359;53.048;8.732;2022-12-20T07:34:29;4.75;;;3.42;;
43744;SDS011;29359;53.048;8.732;2022-12-20T07:36:31;4.28;;;3.05;;
43744;SDS011;29359;53.048;8.732;2022-12-20T07:38:33;4.97;;;3.30;;
43744;SDS011;29359;53.048;8.732;2022-12-20T07:40:37;4.35;;;2.95;;
43744;SDS011;29359;53.048;8.732;2022-12-20T07:42:40;3.13;;;2.83;;
43744;SDS011;29359;53.048;8.732;2022-12-20T07:44:49;4.28;;;2.75;;
43744;SDS011;29359;53.048;8.732;2022-12-20T07:46:50;4.95;;;3.10;;
43744;SDS011;29359;53.048;8.732;2022-12-20T07:48:52;3.47;;;3.17;;
43744;SDS011;29359;53.048;8.732;2022-12-20T07:50:55;5.07;;;3.17;;
43744;SDS011;29359;53.048;8.732;2022-12-20T07:53:01;4.35;;;3.15;;
43744;SDS011;29359;53.048;8.732;2022-12-20T07:55:06;10.00;;;3.22;;
43744;SDS011;29359;53.048;8.732;2022-12-20T07:57:10;3.50;;;3.17;;
43744;SDS011;29359;53.048;8.732;2022-12-20T07:59:17;5.85;;;2.95;;
43744;SDS011;29359;53.048;8.732;2022-12-20T08:01:24;6.90;;;3.30;;
43744;SDS011;29359;53.048;8.732;2022-12-20T08:03:29;7.13;;;3.42;;
43744;SDS011;29359;53.048;8.732;2022-12-20T08:05:37;5.78;;;3.22;;
43744;SDS011;29359;53.048;8.732;2022-12-20T08:07:42;3.72;;;3.10;;
43744;SDS011;29359;53.048;8.732;2022-12-20T08:09:47;5.53;;;2.90;;
43744;SDS011;29359;53.048;8.732;2022-12-20T08:11:48;3.20;;;2.90;;
43744;SDS011;29359;53.048;8.732;2022-12-20T08:13:51;5.90;;;3.13;;
43744;SDS011;29359;53.048;8.732;2022-12-20T08:15:58;7.25;;;3.25;;
43744;SDS011;29359;53.048;8.732;2022-12-20T08:18:00;3.13;;;2.83;;
43744;SDS011;29359;53.048;8.732;2022-12-20T08:20:03;3.42;;;2.85;;
43744;SDS011;29359;53.048;8.732;2022-12-20T08:22:05;3.78;;;3.00;;
43744;SDS011;29359;53.048;8.732;2022-12-20T08:24:07;3.47;;;2.60;;
43744;SDS011;29359;53.048;8.732;2022-12-20T08:26:09;4.03;;;3.60;;
43744;SDS011;29359;53.048;8.732;2022-12-20T08:28:10;3.38;;;2.92;;
43744;SDS011;29359;53.048;8.732;2022-12-20T08:30:12;6.00;;;3.63;;
43744;SDS011;29359;53.048;8.732;2022-12-20T08:32:14;3.42;;;2.97;;
43744;SDS011;29359;53.048;8.732;2022-12-20T08:34:16;4.75;;;2.97;;
43744;SDS011;29359;53.048;8.732;2022-12-20T08:36:17;3.15;;;2.85;;
43744;SDS011;29359;53.048;8.732;2022-12-20T08:38:19;8.20;;;3.22;;
43744;SDS011;29359;53.048;8.732;2022-12-20T08:40:21;4.30;;;2.65;;
43744;SDS011;29359;53.048;8.732;2022-12-20T08:42:22;6.72;;;3.17;;
43744;SDS011;29359;53.048;8.732;2022-12-20T08:44:25;4.15;;;3.10;;
43744;SDS011;29359;53.048;8.732;2022-12-20T08:46:26;4.97;;;2.95;;
43744;SDS011;29359;53.048;8.732;2022-12-20T08:48:28;6.45;;;2.92;;
43744;SDS011;29359;53.048;8.732;2022-12-20T08:50:30;3.63;;;2.95;;
43744;SDS011;29359;53.048;8.732;2022-12-20T08:52:31;3.70;;;2.80;;
43744;SDS011;29359;53.048;8.732;2022-12-20T08:54:33;6.15;;;3.05;;
43744;SDS011;29359;53.048;8.732;2022-12-20T08:56:34;4.18;;;3.00;;
43744;SDS011;29359;53.048;8.732;2022-12-20T08:58:36;4.15;;;3.10;;
43744;SDS011;29359;53.048;8.732;2022-12-20T09:00:38;4.25;;;2.95;;
43744;SDS011;29359;53.048;8.732;2022-12-20T09:02:40;3.70;;;3.38;;
43744;SDS011;29359;53.048;8.732;2022-12-20T09:04:42;3.00;;;2.80;;
43744;SDS011;29359;53.048;8.732;2022-12-20T09:06:44;3.60;;;2.83;;
43744;SDS011;29359;53.048;8.732;2022-12-20T09:08:46;3.10;;;2.60;;
43744;SDS011;29359;53.048;8.732;2022-12-20T09:10:48;5.07;;;3.03;;
43744;SDS011;29359;53.048;8.732;2022-12-20T09:12:50;3.95;;;2.88;;
43744;SDS011;29359;53.048;8.732;2022-12-20T09:14:52;3.92;;;2.60;;
43744;SDS011;29359;53.048;8.732;2022-12-20T09:16:53;2.85;;;2.60;;
43744;SDS011;29359;53.048;8.732;2022-12-20T09:18:55;4.05;;;2.50;;
43744;SDS011;29359;53.048;8.732;2022-12-20T09:21:05;5.32;;;2.85;;
43744;SDS011;29359;53.048;8.732;2022-12-20T09:23:08;3.25;;;2.72;;
43744;SDS011;29359;53.048;8.732;2022-12-20T09:25:09;3.88;;;2.67;;
43744;SDS011;29359;53.048;8.732;2022-12-20T09:27:11;2.72;;;2.53;;
43744;SDS011;29359;53.048;8.732;2022-12-20T09:29:12;3.58;;;2.97;;
43744;SDS011;29359;53.048;8.732;2022-12-20T09:31:20;2.72;;;2.50;;
43744;SDS011;29359;53.048;8.732;2022-12-20T09:33:23;3.67;;;2.78;;
43744;SDS011;29359;53.048;8.732;2022-12-20T09:35:25;6.30;;;2.58;;
43744;SDS011;29359;53.048;8.732;2022-12-20T09:37:28;5.22;;;2.67;;
43744;SDS011;29359;53.048;8.732;2022-12-20T09:39:31;3.25;;;2.78;;
43744;SDS011;29359;53.048;8.732;2022-12-20T09:43:39;4.10;;;2.50;;
43744;SDS011;29359;53.048;8.732;2022-12-20T09:45:42;5.32;;;2.60;;
43744;SDS011;29359;53.048;8.732;2022-12-20T09:47:47;5.05;;;3.08;;
43744;SDS011;29359;53.048;8.732;2022-12-20T09:49:50;3.30;;;2.40;;
43744;SDS011;29359;53.048;8.732;2022-12-20T09:54:36;6.85;;;2.65;;
43744;SDS011;29359;53.048;8.732;2022-12-20T09:56:52;3.80;;;2.60;;
43744;SDS011;29359;53.048;8.732;2022-12-20T09:59:09;4.28;;;2.75;;
43744;SDS011;29359;53.048;8.732;2022-12-20T10:01:19;3.20;;;2.60;;
43744;SDS011;29359;53.048;8.732;2022-12-20T10:03:28;4.30;;;2.75;;
43744;SDS011;29359;53.048;8.732;2022-12-20T10:05:44;5.15;;;2.55;;
43744;SDS011;29359;53.048;8.732;2022-12-20T10:08:04;4.40;;;3.22;;
43744;SDS011;29359;53.048;8.732;2022-12-20T10:10:18;3.92;;;2.55;;
43744;SDS011;29359;53.048;8.732;2022-12-20T10:12:36;4.00;;;2.78;;
43744;SDS011;29359;53.048;8.732;2022-12-20T10:20:02;2.50;;;2.30;;
43744;SDS011;29359;53.048;8.732;2022-12-20T10:22:32;2.80;;;2.45;;
43744;SDS011;29359;53.048;8.732;2022-12-20T10:24:44;2.60;;;2.40;;
43744;SDS011;29359;53.048;8.732;2022-12-20T10:26:54;5.95;;;2.50;;
43744;SDS011;29359;53.048;8.732;2022-12-20T10:28:56;5.03;;;2.35;;
43744;SDS011;29359;53.048;8.732;2022-12-20T10:30:58;5.72;;;2.97;;
43744;SDS011;29359;53.048;8.732;2022-12-20T10:33:10;7.13;;;2.92;;
43744;SDS011;29359;53.048;8.732;2022-12-20T10:37:25;2.95;;;2.50;;
43744;SDS011;29359;53.048;8.732;2022-12-20T10:39:39;3.28;;;2.50;;
43744;SDS011;29359;53.048;8.732;2022-12-20T10:43:48;3.90;;;2.95;;
43744;SDS011;29359;53.048;8.732;2022-12-20T10:45:59;3.63;;;2.30;;
43744;SDS011;29359;53.048;8.732;2022-12-20T10:48:05;3.53;;;2.40;;
43744;SDS011;29359;53.048;8.732;2022-12-20T10:50:24;4.07;;;2.50;;
43744;SDS011;29359;53.048;8.732;2022-12-20T10:52:26;4.97;;;2.35;;
43744;SDS011;29359;53.048;8.732;2022-12-20T10:54:32;3.60;;;2.33;;
43744;SDS011;29359;53.048;8.732;2022-12-20T10:56:35;2.88;;;2.50;;
43744;SDS011;29359;53.048;8.732;2022-12-20T10:58:37;4.20;;;2.20;;
43744;SDS011;29359;53.048;8.732;2022-12-20T11:00:39;6.22;;;2.83;;
43744;SDS011;29359;53.048;8.732;2022-12-20T11:02:41;4.43;;;2.53;;
43744;SDS011;29359;53.048;8.732;2022-12-20T11:05:24;5.75;;;2.40;;
43744;SDS011;29359;53.048;8.732;2022-12-20T11:07:27;3.22;;;2.35;;
43744;SDS011;29359;53.048;8.732;2022-12-20T11:09:32;2.78;;;2.50;;
43744;SDS011;29359;53.048;8.732;2022-12-20T11:11:37;4.03;;;2.65;;
43744;SDS011;29359;53.048;8.732;2022-12-20T11:13:39;8.73;;;2.63;;
43744;SDS011;29359;53.048;8.732;2022-12-20T11:15:41;3.67;;;1.92;;
43744;SDS011;29359;53.048;8.732;2022-12-20T11:17:50;5.97;;;2.25;;
43744;SDS011;29359;53.048;8.732;2022-12-20T11:22:38;2.45;;;2.25;;
43744;SDS011;29359;53.048;8.732;2022-12-20T11:24:48;6.20;;;2.60;;
43744;SDS011;29359;53.048;8.732;2022-12-20T11:27:19;4.90;;;2.25;;
43744;SDS011;29359;53.048;8.732;2022-12-20T11:29:38;5.82;;;2.88;;
43744;SDS011;29359;53.048;8.732;2022-12-20T11:34:30;3.03;;;2.10;;
43744;SDS011;29359;53.048;8.732;2022-12-20T11:36:50;5.75;;;2.47;;
43744;SDS011;29359;53.048;8.732;2022-12-20T11:39:04;2.63;;;2.40;;
43744;SDS011;29359;53.048;8.732;2022-12-20T11:51:02;4.50;;;2.20;;
43744;SDS011;29359;53.048;8.732;2022-12-20T11:53:09;4.32;;;2.30;;
43744;SDS011;29359;53.048;8.732;2022-12-20T11:55:27;6.53;;;2.70;;
43744;SDS011;29359;53.048;8.732;2022-12-20T11:57:36;4.95;;;2.15;;
43744;SDS011;29359;53.048;8.732;2022-12-20T12:00:06;5.50;;;2.42;;
43744;SDS011;29359;53.048;8.732;2022-12-20T12:02:14;2.05;;;1.92;;
43744;SDS011;29359;53.048;8.732;2022-12-20T12:04:28;3.20;;;2.30;;
43744;SDS011;29359;53.048;8.732;2022-12-20T12:06:33;5.68;;;2.33;;
43744;SDS011;29359;53.048;8.732;2022-12-20T12:08:51;8.68;;;2.53;;
43744;SDS011;29359;53.048;8.732;2022-12-20T12:13:40;3.10;;;2.53;;
43744;SDS011;29359;53.048;8.732;2022-12-20T12:18:24;3.65;;;2.58;;
43744;SDS011;29359;53.048;8.732;2022-12-20T12:22:45;4.00;;;2.65;;
43744;SDS011;29359;53.048;8.732;2022-12-20T12:24:51;4.07;;;2.47;;
43744;SDS011;29359;53.048;8.732;2022-12-20T12:26:58;4.85;;;3.08;;
43744;SDS011;29359;53.048;8.732;2022-12-20T12:29:02;4.38;;;2.60;;
43744;SDS011;29359;53.048;8.732;2022-12-20T12:31:07;8.48;;;2.95;;
43744;SDS011;29359;53.048;8.732;2022-12-20T12:33:15;8.60;;;2.90;;
43744;SDS011;29359;53.048;8.732;2022-12-20T12:49:51;4.07;;;2.60;;
43744;SDS011;29359;53.048;8.732;2022-12-20T12:51:57;7.78;;;3.03;;
43744;SDS011;29359;53.048;8.732;2022-12-20T12:54:01;5.50;;;3.42;;
43744;SDS011;29359;53.048;8.732;2022-12-20T12:58:44;4.03;;;2.72;;
43744;SDS011;29359;53.048;8.732;2022-12-20T13:01:09;7.30;;;3.40;;
43744;SDS011;29359;53.048;8.732;2022-12-20T13:03:15;3.90;;;2.97;;
43744;SDS011;29359;53.048;8.732;2022-12-20T13:05:35;6.10;;;2.85;;
43744;SDS011;29359;53.048;8.732;2022-12-20T13:09:40;7.22;;;2.90;;
43744;SDS011;29359;53.048;8.732;2022-12-20T13:11:42;6.80;;;2.88;;
43744;SDS011;29359;53.048;8.732;2022-12-20T13:13:48;4.35;;;2.30;;
43744;SDS011;29359;53.048;8.732;2022-12-20T13:15:50;6.30;;;2.97;;
43744;SDS011;29359;53.048;8.732;2022-12-20T13:20:22;6.72;;;3.13;;
43744;SDS011;29359;53.048;8.732;2022-12-20T13:22:26;4.97;;;2.78;;
43744;SDS011;29359;53.048;8.732;2022-12-20T13:26:56;4.88;;;2.92;;
43744;SDS011;29359;53.048;8.732;2022-12-20T13:29:13;5.40;;;2.80;;
43744;SDS011;29359;53.048;8.732;2022-12-20T13:33:43;5.75;;;2.90;;
43744;SDS011;29359;53.048;8.732;2022-12-20T13:35:46;5.75;;;2.75;;
43744;SDS011;29359;53.048;8.732;2022-12-20T13:40:13;4.95;;;2.83;;
43744;SDS011;29359;53.048;8.732;2022-12-20T13:42:31;6.90;;;3.08;;
43744;SDS011;29359;53.048;8.732;2022-12-20T13:44:41;6.03;;;3.20;;
43744;SDS011;29359;53.048;8.732;2022-12-20T13:46:53;5.00;;;2.90;;
43744;SDS011;29359;53.048;8.732;2022-12-20T13:49:01;5.55;;;3.00;;
43744;SDS011;29359;53.048;8.732;2022-12-20T13:51:04;5.53;;;3.13;;
43744;SDS011;29359;53.048;8.732;2022-12-20T13:53:15;5.13;;;3.50;;
43744;SDS011;29359;53.048;8.732;2022-12-20T13:55:25;4.07;;;3.15;;
43744;SDS011;29359;53.048;8.732;2022-12-20T13:57:39;3.63;;;3.13;;